METAR Formatted Surface Weather Observation
Issued by NWS

Home | Current Version | Previous Version | Text Only | Print | Product List | Glossary On
Versions: 1 2 3 4 5 6 7 8 9 10 11 12 13 14 15 16 17 18 19 20
000
SAUS45 KPSR 140457
MTRFHU
METAR KFHU 140456Z AUTO 26014KT 10SM CLR 18/M06 A2998 RMK AO2 SLP105
T01781061 $



USA.gov is the U.S. government's official web portal to all federal, state and local government web resources and services.